createdAt,value
2022-10-23T00:00:14.062Z,13.67
2022-10-23T00:02:41.017Z,13.65
2022-10-23T00:05:08.070Z,13.62
2022-10-23T00:07:34.540Z,13.60
2022-10-23T00:10:01.154Z,13.57
2022-10-23T00:12:27.611Z,13.55
2022-10-23T00:14:54.068Z,13.52
2022-10-23T00:17:20.631Z,13.50
2022-10-23T00:19:47.131Z,13.48
2022-10-23T00:22:13.611Z,13.45
2022-10-23T00:24:40.104Z,13.42
2022-10-23T00:27:06.708Z,13.43
2022-10-23T00:29:33.173Z,13.41
2022-10-23T00:31:59.678Z,13.38
2022-10-23T00:34:26.218Z,13.37
2022-10-23T00:36:52.761Z,13.36
2022-10-23T00:39:19.247Z,13.34
2022-10-23T00:41:45.872Z,13.33
2022-10-23T00:44:18.321Z,13.30
2022-10-23T00:46:44.863Z,13.30
2022-10-23T00:51:43.236Z,13.25
2022-10-23T00:54:23.362Z,13.23
2022-10-23T00:56:52.651Z,13.21
2022-10-23T00:59:19.109Z,13.19
2022-10-23T01:01:45.789Z,13.17
2022-10-23T01:04:12.574Z,13.15
2022-10-23T01:07:29.524Z,13.11
2022-10-23T01:10:02.126Z,13.09
2022-10-23T01:12:41.569Z,13.08
2022-10-23T01:15:21.664Z,12.96
2022-10-23T01:18:10.129Z,13.00
2022-10-23T01:20:42.690Z,12.98
2022-10-23T01:23:27.945Z,12.95
2022-10-23T01:26:22.762Z,12.91
2022-10-23T01:29:02.881Z,12.88
2022-10-23T01:32:13.391Z,12.85
2022-10-23T01:34:50.887Z,12.83
2022-10-23T01:37:25.231Z,12.82
2022-10-23T01:39:55.666Z,12.82
2022-10-23T01:42:29.481Z,12.80
2022-10-23T01:45:13.418Z,12.77
2022-10-23T01:47:45.499Z,12.78
2022-10-23T01:50:16.692Z,12.78
2022-10-23T01:52:46.301Z,12.77
2022-10-23T01:55:14.374Z,12.76
2022-10-23T01:57:44.677Z,12.77
2022-10-23T02:00:14.480Z,12.76
2022-10-23T02:02:55.843Z,12.74
2022-10-23T02:05:47.709Z,12.73
2022-10-23T02:08:17.528Z,12.74
2022-10-23T02:10:52.511Z,12.72
2022-10-23T02:13:44.809Z,12.70
2022-10-23T02:16:21.912Z,12.69
2022-10-23T02:18:51.687Z,12.70
2022-10-23T02:21:44.881Z,12.69
2022-10-23T02:24:16.152Z,12.69
2022-10-23T02:26:57.596Z,12.68
2022-10-23T02:29:43.726Z,12.67
2022-10-23T02:32:13.030Z,12.67
2022-10-23T02:34:40.765Z,12.65
2022-10-23T02:37:09.669Z,12.65
2022-10-23T02:39:36.417Z,12.66
2022-10-23T02:42:15.000Z,12.63
2022-10-23T02:45:05.202Z,12.62
2022-10-23T02:47:50.542Z,12.52
2022-10-23T02:50:32.009Z,12.57
2022-10-23T02:53:23.857Z,12.56
2022-10-23T02:56:09.104Z,12.55
2022-10-23T02:59:05.724Z,12.52
2022-10-23T03:01:41.359Z,12.49
2022-10-23T03:04:09.979Z,12.49
2022-10-23T03:06:37.004Z,12.48
2022-10-23T03:09:10.118Z,12.46
2022-10-23T03:11:38.549Z,12.46
2022-10-23T03:14:05.471Z,12.45
2022-10-23T03:16:32.114Z,12.45
2022-10-23T03:18:58.712Z,12.45
2022-10-23T03:21:26.305Z,12.45
2022-10-23T03:23:53.571Z,12.47
2022-10-23T03:26:28.265Z,12.48
2022-10-23T03:28:54.816Z,12.49
2022-10-23T03:31:22.846Z,12.42
2022-10-23T03:33:54.698Z,12.49
2022-10-23T03:36:21.915Z,12.51
2022-10-23T03:38:48.488Z,12.52
2022-10-23T03:41:15.274Z,12.52
2022-10-23T03:43:41.853Z,12.52
2022-10-23T03:46:08.617Z,12.54
2022-10-23T03:48:35.878Z,12.51
2022-10-23T03:51:02.373Z,12.53
2022-10-23T03:53:28.979Z,12.52
2022-10-23T03:55:55.543Z,12.50
2022-10-23T03:58:21.996Z,12.50
2022-10-23T04:00:49.201Z,12.48
2022-10-23T04:03:15.719Z,12.47
2022-10-23T04:05:43.013Z,12.46
2022-10-23T04:08:10.022Z,12.47
2022-10-23T04:10:37.209Z,12.44
2022-10-23T04:13:03.759Z,12.45
2022-10-23T04:15:35.000Z,12.44
2022-10-23T04:18:02.198Z,12.42
2022-10-23T04:20:31.496Z,12.41
2022-10-23T04:23:01.823Z,12.39
2022-10-23T04:25:28.318Z,12.38
2022-10-23T04:27:54.889Z,12.38
2022-10-23T04:30:21.481Z,12.36
2022-10-23T04:32:50.968Z,12.34
2022-10-23T04:35:18.383Z,12.35
2022-10-23T04:37:46.212Z,12.36
2022-10-23T04:40:12.942Z,12.36
2022-10-23T04:42:39.593Z,12.33
2022-10-23T04:45:06.858Z,12.32
2022-10-23T04:47:34.624Z,12.33
2022-10-23T04:50:02.331Z,12.35
2022-10-23T04:52:58.327Z,12.36
2022-10-23T04:55:53.995Z,12.35
2022-10-23T04:58:30.346Z,12.36
2022-10-23T05:00:58.508Z,12.36
2022-10-23T05:03:26.487Z,12.36
2022-10-23T05:05:55.088Z,12.36
2022-10-23T05:08:24.253Z,12.37
2022-10-23T05:11:13.665Z,12.37
2022-10-23T05:13:44.640Z,12.39
2022-10-23T05:16:21.313Z,12.38
2022-10-23T05:18:48.828Z,12.38
2022-10-23T05:21:24.272Z,12.37
2022-10-23T05:23:51.238Z,12.39
2022-10-23T05:26:18.013Z,12.38
2022-10-23T05:28:46.867Z,12.38
2022-10-23T05:31:19.508Z,12.38
2022-10-23T05:33:50.468Z,12.36
2022-10-23T05:36:20.058Z,12.37
2022-10-23T05:38:50.133Z,12.37
2022-10-23T05:41:18.867Z,12.34
2022-10-23T05:43:46.232Z,12.33
2022-10-23T05:46:32.754Z,12.32
2022-10-23T05:49:11.901Z,12.30
2022-10-23T05:51:56.837Z,12.29
2022-10-23T05:54:35.892Z,12.26
2022-10-23T05:57:34.206Z,12.25
2022-10-23T06:00:05.864Z,12.24
2022-10-23T06:02:50.247Z,12.21
2022-10-23T06:05:34.723Z,12.20
2022-10-23T06:08:31.800Z,12.16
2022-10-23T06:10:58.759Z,12.18
2022-10-23T06:13:25.348Z,12.19
2022-10-23T06:15:51.840Z,12.20
2022-10-23T06:18:26.019Z,12.20
2022-10-23T06:21:00.359Z,12.18
2022-10-23T06:23:27.427Z,12.21
2022-10-23T06:25:59.950Z,12.20
2022-10-23T06:28:40.697Z,12.20
2022-10-23T06:31:11.693Z,12.21
2022-10-23T06:33:38.973Z,12.24
2022-10-23T06:36:06.943Z,12.24
2022-10-23T06:38:33.665Z,12.26
2022-10-23T06:41:00.185Z,12.29
2022-10-23T06:43:34.684Z,12.33
2022-10-23T06:46:17.395Z,12.36
2022-10-23T06:49:06.763Z,12.38
2022-10-23T06:51:40.658Z,12.42
2022-10-23T06:54:11.575Z,12.45
2022-10-23T06:56:50.042Z,12.49
2022-10-23T06:59:30.347Z,12.54
2022-10-23T07:01:57.164Z,12.57
2022-10-23T07:04:23.803Z,12.62
2022-10-23T07:06:50.320Z,12.67
2022-10-23T07:09:24.424Z,12.72
2022-10-23T07:11:50.890Z,12.77
2022-10-23T07:14:18.951Z,12.83
2022-10-23T07:16:45.941Z,12.88
2022-10-23T07:19:13.120Z,12.94
2022-10-23T07:21:56.928Z,13.02
2022-10-23T07:24:46.330Z,13.07
2022-10-23T07:27:22.532Z,13.14
2022-10-23T07:29:55.388Z,13.20
2022-10-23T07:32:22.204Z,13.27
2022-10-23T07:35:09.033Z,13.31
2022-10-23T07:37:38.778Z,13.39
2022-10-23T07:40:06.439Z,13.45
2022-10-23T07:42:39.599Z,13.51
2022-10-23T07:45:07.984Z,13.55
2022-10-23T07:47:37.501Z,13.60
2022-10-23T07:50:04.339Z,13.65
2022-10-23T07:52:34.977Z,13.70
2022-10-23T07:55:13.695Z,13.74
2022-10-23T07:57:47.130Z,13.78
2022-10-23T08:00:35.514Z,13.83
2022-10-23T08:03:12.201Z,13.85
2022-10-23T08:05:39.229Z,13.88
2022-10-23T08:08:05.764Z,13.90
2022-10-23T08:10:32.573Z,13.94
2022-10-23T08:12:59.663Z,13.99
2022-10-23T08:15:51.855Z,14.02
2022-10-23T08:18:40.948Z,14.06
2022-10-23T08:21:07.584Z,14.08
2022-10-23T08:23:34.262Z,14.14
2022-10-23T08:26:02.537Z,14.20
2022-10-23T08:28:32.393Z,14.23
2022-10-23T08:31:07.754Z,14.28
2022-10-23T08:33:34.396Z,14.36
2022-10-23T08:36:00.986Z,14.41
2022-10-23T08:38:32.086Z,14.49
2022-10-23T08:40:59.564Z,14.57
2022-10-23T08:43:48.015Z,14.68
2022-10-23T08:46:35.906Z,14.77
2022-10-23T08:49:44.134Z,14.87
2022-10-23T08:52:30.289Z,14.99
2022-10-23T08:55:40.621Z,15.11
2022-10-23T08:58:17.143Z,15.21
2022-10-23T09:00:44.806Z,15.33
2022-10-23T09:03:13.049Z,15.43
2022-10-23T09:05:57.183Z,15.52
2022-10-23T09:08:36.455Z,15.62
2022-10-23T09:11:19.743Z,15.73
2022-10-23T09:14:01.239Z,15.84
2022-10-23T09:16:46.259Z,15.91
2022-10-23T09:19:17.491Z,16.00
2022-10-23T09:21:49.031Z,16.09
2022-10-23T09:24:17.947Z,16.17
2022-10-23T09:26:50.874Z,16.24
2022-10-23T09:29:27.605Z,16.30
2022-10-23T09:31:56.891Z,16.39
2022-10-23T09:34:26.865Z,16.45
2022-10-23T09:37:00.181Z,16.49
2022-10-23T09:39:30.327Z,16.55
2022-10-23T09:41:58.003Z,16.62
2022-10-23T09:44:28.251Z,16.66
2022-10-23T09:47:08.660Z,16.74
2022-10-23T09:49:35.433Z,16.80
2022-10-23T09:52:22.218Z,16.86
2022-10-23T09:54:53.049Z,16.93
2022-10-23T09:57:41.836Z,16.99
2022-10-23T10:00:14.769Z,17.03
2022-10-23T10:02:43.788Z,17.12
2022-10-23T10:05:38.670Z,17.19
2022-10-23T10:08:26.256Z,17.29
2022-10-23T10:11:12.081Z,17.39
2022-10-23T10:14:04.828Z,17.47
2022-10-23T10:16:55.998Z,17.57
2022-10-23T10:19:22.441Z,17.68
2022-10-23T10:21:58.053Z,17.76
2022-10-23T10:24:34.739Z,17.83
2022-10-23T10:27:21.230Z,17.92
2022-10-23T10:30:18.354Z,18.00
2022-10-23T10:33:04.793Z,18.11
2022-10-23T10:35:41.131Z,18.21
2022-10-23T10:38:10.245Z,18.30
2022-10-23T10:40:45.108Z,18.38
2022-10-23T10:43:17.236Z,18.47
2022-10-23T10:46:09.808Z,18.55
2022-10-23T10:48:46.523Z,18.63
2022-10-23T10:52:03.467Z,18.71
2022-10-23T10:54:34.450Z,18.79
2022-10-23T10:57:08.890Z,18.89
2022-10-23T10:59:42.019Z,18.95
2022-10-23T11:02:28.479Z,19.00
2022-10-23T11:05:15.034Z,19.06
2022-10-23T11:07:54.250Z,19.15
2022-10-23T11:10:21.544Z,19.20
2022-10-23T11:12:48.848Z,19.27
2022-10-23T11:15:19.090Z,19.33
2022-10-23T11:17:53.637Z,19.38
2022-10-23T11:20:38.961Z,19.41
2022-10-23T11:23:38.247Z,19.47
2022-10-23T11:26:26.356Z,19.51
2022-10-23T11:29:13.087Z,19.58
2022-10-23T11:31:52.660Z,19.66
2022-10-23T11:34:53.552Z,19.71
2022-10-23T11:37:21.153Z,19.78
2022-10-23T11:40:21.251Z,19.81
2022-10-23T11:42:50.275Z,19.89
2022-10-23T11:45:45.897Z,19.91
2022-10-23T11:48:15.301Z,19.99
2022-10-23T11:50:44.916Z,20.05
2022-10-23T11:53:30.039Z,20.11
2022-10-23T11:56:16.469Z,20.18
2022-10-23T11:58:49.564Z,20.28
2022-10-23T12:01:20.085Z,20.39
2022-10-23T12:03:58.689Z,20.45
2022-10-23T12:06:32.008Z,20.54
2022-10-23T12:09:06.713Z,20.59
2022-10-23T12:11:44.002Z,20.67
2022-10-23T12:14:29.177Z,20.72
2022-10-23T12:16:56.318Z,20.80
2022-10-23T12:19:25.229Z,20.85
2022-10-23T12:21:54.891Z,20.92
2022-10-23T12:24:40.609Z,20.96
2022-10-23T12:27:22.490Z,21.00
2022-10-23T12:30:07.692Z,21.07
2022-10-23T12:32:44.593Z,21.07
2022-10-23T12:35:39.833Z,21.13
2022-10-23T12:38:20.089Z,21.16
2022-10-23T12:40:52.022Z,21.21
2022-10-23T12:43:31.504Z,21.25
2022-10-23T12:46:05.192Z,21.28
2022-10-23T12:48:33.380Z,21.32
2022-10-23T12:50:59.918Z,21.33
2022-10-23T12:53:26.526Z,21.34
2022-10-23T12:56:01.760Z,21.35
2022-10-23T12:58:31.505Z,21.39
2022-10-23T13:01:04.383Z,21.42
2022-10-23T13:03:32.945Z,21.47
2022-10-23T13:06:01.490Z,21.50
2022-10-23T13:08:40.263Z,21.51
2022-10-23T13:11:26.446Z,21.56
2022-10-23T13:13:55.404Z,21.62
2022-10-23T13:16:24.674Z,21.67
2022-10-23T13:18:51.673Z,21.71
2022-10-23T13:21:22.495Z,21.77
2022-10-23T13:23:50.444Z,21.81
2022-10-23T13:26:32.074Z,21.77
2022-10-23T13:29:00.020Z,21.92
2022-10-23T13:31:26.597Z,21.98
2022-10-23T13:33:59.142Z,22.00
2022-10-23T13:36:27.931Z,22.05
2022-10-23T13:39:10.382Z,22.06
2022-10-23T13:41:40.869Z,22.10
2022-10-23T13:44:09.463Z,22.12
2022-10-23T13:46:35.993Z,22.12
2022-10-23T13:49:02.481Z,22.12
2022-10-23T13:51:31.190Z,22.11
2022-10-23T13:53:58.403Z,22.09
2022-10-23T13:56:26.838Z,22.04
2022-10-23T13:58:54.275Z,22.02
2022-10-23T14:01:26.687Z,21.99
2022-10-23T14:03:54.235Z,21.95
2022-10-23T14:06:23.167Z,21.89
2022-10-23T14:08:49.852Z,21.87
2022-10-23T14:11:18.755Z,21.84
2022-10-23T14:13:47.078Z,21.78
2022-10-23T14:16:15.878Z,21.72
2022-10-23T14:18:42.995Z,21.68
2022-10-23T14:21:15.013Z,21.63
2022-10-23T14:23:41.542Z,21.62
2022-10-23T14:26:10.683Z,21.58
2022-10-23T14:28:37.859Z,21.55
2022-10-23T14:31:12.862Z,21.50
2022-10-23T14:33:40.046Z,21.50
2022-10-23T14:36:07.177Z,21.48
2022-10-23T14:38:33.991Z,21.45
2022-10-23T14:41:00.716Z,21.43
2022-10-23T14:43:27.341Z,21.40
2022-10-23T14:45:53.784Z,21.37
2022-10-23T14:48:20.516Z,21.34
2022-10-23T14:50:48.931Z,21.32
2022-10-23T14:53:16.227Z,21.28
2022-10-23T14:55:42.779Z,21.23
2022-10-23T14:58:09.345Z,21.19
2022-10-23T15:00:35.820Z,21.15
2022-10-23T15:03:02.414Z,21.10
2022-10-23T15:05:29.238Z,21.06
2022-10-23T15:07:55.763Z,21.02
2022-10-23T15:10:22.260Z,20.97
2022-10-23T15:12:48.793Z,20.93
2022-10-23T15:15:15.447Z,20.87
2022-10-23T15:17:41.942Z,20.82
2022-10-23T15:20:08.842Z,20.77
2022-10-23T15:22:35.389Z,20.70
2022-10-23T15:25:01.955Z,20.64
2022-10-23T15:27:28.648Z,20.58
2022-10-23T15:29:55.194Z,20.53
2022-10-23T15:32:21.700Z,20.48
2022-10-23T15:34:48.326Z,20.41
2022-10-23T15:37:15.279Z,20.36
2022-10-23T15:39:41.769Z,20.29
2022-10-23T15:42:09.796Z,20.24
2022-10-23T15:44:36.386Z,20.07
2022-10-23T15:47:02.893Z,20.11
2022-10-23T15:49:29.446Z,20.07
2022-10-23T15:51:56.055Z,20.01
2022-10-23T15:54:23.356Z,19.96
2022-10-23T15:56:52.112Z,19.88
2022-10-23T15:59:22.321Z,19.84
2022-10-23T16:01:49.027Z,19.79
2022-10-23T16:04:15.791Z,19.72
2022-10-23T16:06:43.384Z,19.67
2022-10-23T16:09:10.408Z,19.60
2022-10-23T16:11:38.778Z,19.56
2022-10-23T16:14:05.829Z,19.52
2022-10-23T16:16:33.687Z,19.47
2022-10-23T16:19:01.863Z,19.41
2022-10-23T16:21:31.308Z,19.38
2022-10-23T16:24:00.409Z,19.33
2022-10-23T16:26:28.326Z,19.30
2022-10-23T16:28:56.554Z,19.27
2022-10-23T16:31:24.414Z,19.24
2022-10-23T16:33:52.374Z,19.17
2022-10-23T16:36:19.679Z,19.16
2022-10-23T16:39:16.475Z,19.14
2022-10-23T16:42:01.875Z,19.10
2022-10-23T16:44:48.644Z,19.06
2022-10-23T16:47:15.137Z,19.05
2022-10-23T16:49:41.766Z,19.01
2022-10-23T16:52:08.653Z,18.98
2022-10-23T16:54:35.152Z,18.96
2022-10-23T16:57:01.818Z,18.94
2022-10-23T16:59:28.313Z,18.91
2022-10-23T17:01:54.928Z,18.88
2022-10-23T17:04:21.523Z,18.85
2022-10-23T17:06:48.003Z,18.81
2022-10-23T17:09:15.074Z,18.79
2022-10-23T17:11:44.394Z,18.77
2022-10-23T17:14:15.130Z,18.74
2022-10-23T17:16:45.446Z,18.71
2022-10-23T17:19:33.016Z,18.67
2022-10-23T17:22:03.924Z,18.65
2022-10-23T17:24:30.428Z,18.62
2022-10-23T17:26:56.900Z,18.61
2022-10-23T17:29:23.457Z,18.55
2022-10-23T17:31:50.971Z,18.54
2022-10-23T17:34:20.791Z,18.49
2022-10-23T17:36:49.991Z,18.48
2022-10-23T17:39:22.570Z,18.45
2022-10-23T17:41:49.415Z,18.43
2022-10-23T17:44:15.924Z,18.40
2022-10-23T17:46:42.560Z,18.39
2022-10-23T17:49:10.812Z,18.38
2022-10-23T17:51:38.150Z,18.36
2022-10-23T17:54:07.822Z,18.37
2022-10-23T17:56:35.975Z,18.38
2022-10-23T17:59:03.887Z,18.28
2022-10-23T18:01:31.324Z,18.28
2022-10-23T18:04:00.779Z,18.38
2022-10-23T18:06:30.284Z,18.39
2022-10-23T18:08:57.551Z,18.39
2022-10-23T18:11:30.653Z,18.38
2022-10-23T18:16:26.466Z,18.37
2022-10-23T18:18:53.748Z,18.37
2022-10-23T18:21:24.785Z,18.35
2022-10-23T18:23:53.423Z,18.35
2022-10-23T18:26:27.745Z,18.33
2022-10-23T18:28:56.815Z,18.34
2022-10-23T18:31:24.122Z,18.31
2022-10-23T18:33:55.749Z,18.29
2022-10-23T18:36:25.525Z,18.29
2022-10-23T18:41:43.891Z,18.25
2022-10-23T18:44:16.698Z,18.22
2022-10-23T18:46:43.792Z,18.19
2022-10-23T18:49:10.671Z,18.16
2022-10-23T18:51:38.158Z,18.13
2022-10-23T18:54:08.371Z,18.08
2022-10-23T18:56:35.342Z,18.04
2022-10-23T18:59:03.960Z,17.98
2022-10-23T19:01:31.496Z,17.96
2022-10-23T19:03:59.855Z,17.88
2022-10-23T19:06:26.823Z,17.83
2022-10-23T19:08:54.163Z,17.79
2022-10-23T19:11:22.909Z,17.73
2022-10-23T19:13:49.983Z,17.69
2022-10-23T19:16:39.640Z,17.63
2022-10-23T19:19:22.725Z,17.56
2022-10-23T19:21:50.224Z,17.51
2022-10-23T19:24:21.716Z,17.45
2022-10-23T19:26:48.518Z,17.41
2022-10-23T19:29:20.560Z,17.34
2022-10-23T19:31:48.866Z,17.30
2022-10-23T19:34:17.083Z,17.25
2022-10-23T19:36:43.624Z,17.20
2022-10-23T19:39:10.115Z,17.17
2022-10-23T19:41:36.604Z,17.13
2022-10-23T19:44:03.180Z,17.10
2022-10-23T19:46:29.675Z,17.08
2022-10-23T19:48:57.067Z,17.04
2022-10-23T19:51:23.643Z,17.03
2022-10-23T19:53:50.195Z,17.01
2022-10-23T19:56:16.662Z,17.01
2022-10-23T19:58:43.260Z,17.02
2022-10-23T20:01:12.919Z,17.01
2022-10-23T20:03:43.587Z,17.01
2022-10-23T20:06:15.395Z,17.02
2022-10-23T20:08:42.426Z,17.04
2022-10-23T20:11:10.327Z,17.04
2022-10-23T20:13:36.999Z,16.96
2022-10-23T20:16:04.869Z,17.05
2022-10-23T20:18:31.541Z,17.09
2022-10-23T20:21:01.801Z,17.08
2022-10-23T20:23:28.325Z,17.09
2022-10-23T20:25:54.965Z,17.10
2022-10-23T20:28:21.719Z,17.11
2022-10-23T20:30:48.188Z,17.11
2022-10-23T20:33:14.692Z,17.13
2022-10-23T20:35:42.608Z,17.14
2022-10-23T20:38:09.787Z,17.14
2022-10-23T20:40:36.926Z,17.14
2022-10-23T20:43:04.220Z,17.15
2022-10-23T20:45:30.699Z,17.16
2022-10-23T20:47:57.202Z,17.17
2022-10-23T20:50:24.008Z,17.18
2022-10-23T20:52:51.208Z,17.21
2022-10-23T20:55:18.358Z,17.21
2022-10-23T20:57:45.535Z,17.20
2022-10-23T21:00:12.632Z,17.23
2022-10-23T21:02:39.217Z,17.26
2022-10-23T21:05:06.303Z,17.29
2022-10-23T21:07:32.789Z,17.31
2022-10-23T21:09:59.318Z,17.34
2022-10-23T21:12:25.841Z,17.37
2022-10-23T21:14:53.420Z,17.40
2022-10-23T21:17:20.588Z,17.44
2022-10-23T21:19:47.196Z,17.45
2022-10-23T21:22:13.832Z,17.48
2022-10-23T21:24:40.270Z,17.50
2022-10-23T21:27:06.751Z,17.54
2022-10-23T21:29:33.269Z,17.58
2022-10-23T21:32:00.821Z,17.64
2022-10-23T21:34:28.248Z,17.70
2022-10-23T21:39:45.987Z,17.95
2022-10-23T21:42:13.958Z,18.00
2022-10-23T21:44:40.670Z,18.00
2022-10-23T21:47:07.343Z,18.02
2022-10-23T21:49:33.929Z,18.03
2022-10-23T21:52:00.437Z,18.03
2022-10-23T21:54:27.061Z,18.02
2022-10-23T21:56:53.946Z,18.02
2022-10-23T21:59:23.339Z,18.01
2022-10-23T22:01:50.218Z,17.99
2022-10-23T22:04:18.668Z,17.99
2022-10-23T22:06:47.499Z,17.98
2022-10-23T22:09:16.189Z,17.95
2022-10-23T22:11:42.764Z,17.94
2022-10-23T22:14:09.383Z,17.91
2022-10-23T22:16:35.975Z,17.91
2022-10-23T22:19:02.889Z,17.90
2022-10-23T22:21:30.591Z,17.89
2022-10-23T22:23:59.292Z,17.88
2022-10-23T22:26:45.134Z,17.89
2022-10-23T22:29:15.161Z,17.90
2022-10-23T22:31:44.268Z,17.92
2022-10-23T22:34:27.082Z,17.94
2022-10-23T22:37:05.022Z,17.95
2022-10-23T22:39:31.557Z,18.00
2022-10-23T22:41:58.077Z,18.00
2022-10-23T22:44:24.546Z,18.02
2022-10-23T22:46:51.055Z,18.04
2022-10-23T22:49:17.695Z,18.04
2022-10-23T22:51:44.238Z,18.07
2022-10-23T22:54:11.166Z,18.10
2022-10-23T22:56:37.749Z,18.16
2022-10-23T22:59:05.552Z,18.23
2022-10-23T23:01:37.591Z,18.29
2022-10-23T23:04:14.028Z,18.37
2022-10-23T23:06:50.915Z,18.43
2022-10-23T23:09:18.239Z,18.51
2022-10-23T23:11:51.246Z,18.57
2022-10-23T23:14:22.038Z,18.63
2022-10-23T23:16:50.455Z,18.68
2022-10-23T23:19:16.942Z,18.72
2022-10-23T23:21:43.579Z,18.77
2022-10-23T23:24:11.664Z,18.80
2022-10-23T23:26:38.166Z,18.74
2022-10-23T23:29:04.873Z,18.85
2022-10-23T23:31:31.509Z,18.91
2022-10-23T23:33:58.194Z,18.95
2022-10-23T23:36:26.832Z,18.97
2022-10-23T23:38:54.003Z,19.00
2022-10-23T23:41:21.388Z,19.03
2022-10-23T23:43:49.103Z,19.08
2022-10-23T23:46:16.949Z,19.13
2022-10-23T23:48:43.545Z,19.17
2022-10-23T23:51:09.985Z,19.21
2022-10-23T23:53:36.667Z,19.24
2022-10-23T23:56:03.515Z,19.26
2022-10-23T23:58:30.021Z,19.27
